createdAt,value
2017-04-09T00:00:07.154Z,1021.47
2017-04-09T00:00:48.032Z,1021.45
2017-04-09T00:01:28.919Z,1021.48
2017-04-09T00:02:09.803Z,1021.46
2017-04-09T00:02:50.675Z,1021.5
2017-04-09T00:03:31.557Z,1021.5
2017-04-09T00:04:12.444Z,1021.5
2017-04-09T00:04:53.326Z,1021.52
2017-04-09T00:05:34.210Z,1021.5
2017-04-09T00:06:15.093Z,1021.49
2017-04-09T00:06:55.978Z,1021.51
2017-04-09T00:07:36.861Z,1021.53
2017-04-09T00:08:17.749Z,1021.52
2017-04-09T00:08:58.632Z,1021.55
2017-04-09T00:09:39.521Z,1021.5
2017-04-09T00:10:20.403Z,1021.51
2017-04-09T00:11:01.286Z,1021.49
2017-04-09T00:11:42.170Z,1021.48
2017-04-09T00:12:23.066Z,1021.48
2017-04-09T00:13:03.951Z,1021.47
2017-04-09T00:13:44.831Z,1021.46
2017-04-09T00:14:25.712Z,1021.5
2017-04-09T00:15:06.595Z,1021.47
2017-04-09T00:15:47.478Z,1021.51
2017-04-09T00:16:28.359Z,1021.5
2017-04-09T00:17:09.236Z,1021.51
2017-04-09T00:17:50.125Z,1021.51
2017-04-09T00:18:31.009Z,1021.5
2017-04-09T00:19:11.889Z,1021.5
2017-04-09T00:19:52.772Z,1021.53
2017-04-09T00:20:33.670Z,1021.51
2017-04-09T00:21:14.549Z,1021.51
2017-04-09T00:21:55.464Z,1021.49
2017-04-09T00:22:36.327Z,1021.54
2017-04-09T00:23:17.208Z,1021.54
2017-04-09T00:23:58.088Z,1021.52
2017-04-09T00:24:38.975Z,1021.55
2017-04-09T00:25:19.862Z,1021.53
2017-04-09T00:26:00.744Z,1021.58
2017-04-09T00:26:41.623Z,1021.56
2017-04-09T00:27:22.509Z,1021.58
2017-04-09T00:28:03.394Z,1021.63
2017-04-09T00:28:44.270Z,1021.61
2017-04-09T00:29:25.155Z,1021.61
2017-04-09T00:30:06.042Z,1021.59
2017-04-09T00:30:46.931Z,1021.62
2017-04-09T00:31:27.807Z,1021.62
2017-04-09T00:32:08.693Z,1021.59
2017-04-09T00:32:49.577Z,1021.58
2017-04-09T00:33:30.463Z,1021.57
2017-04-09T00:34:11.343Z,1021.59
2017-04-09T00:34:52.228Z,1021.58
2017-04-09T00:35:33.113Z,1021.56
2017-04-09T00:36:13.998Z,1021.61
2017-04-09T00:36:54.888Z,1021.6
2017-04-09T00:37:35.770Z,1021.56
2017-04-09T00:38:16.653Z,1021.62
2017-04-09T00:38:57.532Z,1021.6
2017-04-09T00:39:38.435Z,1021.58
2017-04-09T00:40:19.301Z,1021.58
2017-04-09T00:41:00.184Z,1021.58
2017-04-09T00:41:41.069Z,1021.58
2017-04-09T00:42:21.953Z,1021.62
2017-04-09T00:43:02.823Z,1021.61
2017-04-09T00:43:43.720Z,1021.6
2017-04-09T00:44:24.604Z,1021.59
2017-04-09T00:45:05.490Z,1021.64
2017-04-09T00:45:46.373Z,1021.61
2017-04-09T00:46:27.288Z,1021.61
2017-04-09T00:47:08.143Z,1021.61
2017-04-09T00:47:49.026Z,1021.59
2017-04-09T00:48:29.913Z,1021.62
2017-04-09T00:49:10.803Z,1021.61
2017-04-09T00:49:51.696Z,1021.58
2017-04-09T00:50:32.604Z,1021.6
2017-04-09T00:51:13.462Z,1021.6
2017-04-09T00:51:54.344Z,1021.58
2017-04-09T00:52:35.228Z,1021.6
2017-04-09T00:53:16.103Z,1021.65
2017-04-09T00:53:56.988Z,1021.61
2017-04-09T00:54:37.870Z,1021.58
2017-04-09T00:55:18.751Z,1021.6
2017-04-09T00:55:59.635Z,1021.65
2017-04-09T00:56:40.529Z,1021.61
2017-04-09T00:57:21.413Z,1021.61
2017-04-09T00:58:02.296Z,1021.61
2017-04-09T00:58:43.172Z,1021.64
2017-04-09T00:59:24.055Z,1021.62
2017-04-09T01:00:04.943Z,1021.65
2017-04-09T01:00:45.831Z,1021.64
2017-04-09T01:01:26.709Z,1021.66
2017-04-09T01:02:07.592Z,1021.66
2017-04-09T01:02:48.476Z,1021.65
2017-04-09T01:03:29.363Z,1021.67
2017-04-09T01:04:10.247Z,1021.65
2017-04-09T01:04:51.127Z,1021.66
2017-04-09T01:05:32.012Z,1021.66
2017-04-09T01:06:12.897Z,1021.64
2017-04-09T01:06:53.778Z,1021.66
2017-04-09T01:07:34.664Z,1021.67
2017-04-09T01:08:15.547Z,1021.67
2017-04-09T01:08:56.432Z,1021.65
2017-04-09T01:09:37.317Z,1021.65
2017-04-09T01:10:18.203Z,1021.62
2017-04-09T01:10:59.090Z,1021.65
2017-04-09T01:11:39.977Z,1021.64
2017-04-09T01:12:20.861Z,1021.63
2017-04-09T01:13:01.751Z,1021.63
2017-04-09T01:13:42.651Z,1021.6
2017-04-09T01:14:23.538Z,1021.59
2017-04-09T01:15:04.425Z,1021.62
2017-04-09T01:15:45.311Z,1021.62
2017-04-09T01:16:26.193Z,1021.62
2017-04-09T01:17:07.074Z,1021.62
2017-04-09T01:17:47.958Z,1021.63
2017-04-09T01:18:28.846Z,1021.64
2017-04-09T01:19:09.730Z,1021.62
2017-04-09T01:19:50.620Z,1021.63
2017-04-09T01:20:31.509Z,1021.63
2017-04-09T01:21:12.388Z,1021.64
2017-04-09T01:21:53.279Z,1021.63
2017-04-09T01:22:34.163Z,1021.62
2017-04-09T01:23:15.046Z,1021.65
2017-04-09T01:23:55.930Z,1021.61
2017-04-09T01:24:36.818Z,1021.6
2017-04-09T01:25:17.706Z,1021.62
2017-04-09T01:25:58.589Z,1021.63
2017-04-09T01:26:39.469Z,1021.67
2017-04-09T01:27:20.350Z,1021.64
2017-04-09T01:28:01.234Z,1021.65
2017-04-09T01:28:42.122Z,1021.63
2017-04-09T01:29:23.000Z,1021.61
2017-04-09T01:30:03.885Z,1021.63
2017-04-09T01:30:44.773Z,1021.64
2017-04-09T01:31:25.673Z,1021.6
2017-04-09T01:32:06.556Z,1021.61
2017-04-09T01:32:47.447Z,1021.64
2017-04-09T01:33:28.330Z,1021.62
2017-04-09T01:34:09.216Z,1021.6
2017-04-09T01:34:50.108Z,1021.63
2017-04-09T01:35:30.993Z,1021.6
2017-04-09T01:36:11.880Z,1021.6
2017-04-09T01:36:52.764Z,1021.59
2017-04-09T01:37:33.648Z,1021.57
2017-04-09T01:38:14.532Z,1021.58
2017-04-09T01:38:55.413Z,1021.58
2017-04-09T01:39:36.297Z,1021.6
2017-04-09T01:40:17.184Z,1021.57
2017-04-09T01:40:58.087Z,1021.55
2017-04-09T01:41:38.974Z,1021.54
2017-04-09T01:42:19.862Z,1021.58
2017-04-09T01:43:00.739Z,1021.57
2017-04-09T01:43:41.618Z,1021.59
2017-04-09T01:44:22.505Z,1021.59
2017-04-09T01:45:03.395Z,1021.56
2017-04-09T01:45:44.297Z,1021.57
2017-04-09T01:46:25.183Z,1021.55
2017-04-09T01:47:06.072Z,1021.58
2017-04-09T01:47:46.959Z,1021.57
2017-04-09T01:48:27.843Z,1021.57
2017-04-09T01:49:08.731Z,1021.56
2017-04-09T01:49:49.623Z,1021.55
2017-04-09T01:50:30.505Z,1021.55
2017-04-09T01:51:11.389Z,1021.57
2017-04-09T01:51:52.278Z,1021.56
2017-04-09T01:52:33.171Z,1021.57
2017-04-09T01:53:14.049Z,1021.56
2017-04-09T01:53:54.932Z,1021.56
2017-04-09T01:54:35.816Z,1021.55
2017-04-09T01:55:16.701Z,1021.54
2017-04-09T01:55:57.585Z,1021.56
2017-04-09T01:56:38.471Z,1021.51
2017-04-09T01:57:19.350Z,1021.54
2017-04-09T01:58:00.225Z,1021.54
2017-04-09T01:58:41.108Z,1021.57
2017-04-09T01:59:21.992Z,1021.53
2017-04-09T02:00:02.894Z,1021.53
2017-04-09T02:00:43.759Z,1021.53
2017-04-09T02:01:24.645Z,1021.54
2017-04-09T02:02:05.526Z,1021.58
2017-04-09T02:02:46.415Z,1021.54
2017-04-09T02:03:27.300Z,1021.54
2017-04-09T02:04:08.169Z,1021.58
2017-04-09T02:04:49.050Z,1021.58
2017-04-09T02:05:29.943Z,1021.61
2017-04-09T02:06:10.827Z,1021.61
2017-04-09T02:06:51.706Z,1021.6
2017-04-09T02:07:32.588Z,1021.6
2017-04-09T02:08:13.474Z,1021.58
2017-04-09T02:08:54.360Z,1021.59
2017-04-09T02:09:35.242Z,1021.59
2017-04-09T02:10:16.185Z,1021.6
2017-04-09T02:11:49.445Z,1021.62
2017-04-09T02:12:30.329Z,1021.6
2017-04-09T02:13:11.213Z,1021.61
2017-04-09T02:13:52.099Z,1021.61
2017-04-09T02:14:32.991Z,1021.6
2017-04-09T02:15:13.873Z,1021.6
2017-04-09T02:15:54.755Z,1021.57
2017-04-09T02:16:35.647Z,1021.6
2017-04-09T02:17:16.533Z,1021.58
2017-04-09T02:17:57.408Z,1021.61
2017-04-09T02:18:38.294Z,1021.57
2017-04-09T02:19:19.181Z,1021.63
2017-04-09T02:20:00.072Z,1021.64
2017-04-09T02:20:40.949Z,1021.65
2017-04-09T02:21:21.830Z,1021.63
2017-04-09T02:22:02.720Z,1021.65
2017-04-09T02:22:43.606Z,1021.67
2017-04-09T02:23:24.505Z,1021.64
2017-04-09T02:24:05.370Z,1021.63
2017-04-09T02:24:46.259Z,1021.66
2017-04-09T02:25:27.140Z,1021.65
2017-04-09T02:26:08.026Z,1021.65
2017-04-09T02:26:48.914Z,1021.61
2017-04-09T02:27:29.804Z,1021.67
2017-04-09T02:28:10.691Z,1021.63
2017-04-09T02:28:51.596Z,1021.64
2017-04-09T02:29:32.477Z,1021.63
2017-04-09T02:30:13.361Z,1021.65
2017-04-09T02:30:54.240Z,1021.64
2017-04-09T02:31:35.135Z,1021.65
2017-04-09T02:32:16.015Z,1021.62
2017-04-09T02:32:56.899Z,1021.63
2017-04-09T02:33:37.780Z,1021.64
2017-04-09T02:34:18.663Z,1021.57
2017-04-09T02:34:59.547Z,1021.58
2017-04-09T02:35:40.429Z,1021.6
2017-04-09T02:36:21.316Z,1021.59
2017-04-09T02:37:02.202Z,1021.59
2017-04-09T02:37:43.092Z,1021.59
2017-04-09T02:38:23.989Z,1021.56
2017-04-09T02:39:04.879Z,1021.55
2017-04-09T02:39:45.765Z,1021.56
2017-04-09T02:40:26.639Z,1021.61
2017-04-09T02:41:07.522Z,1021.61
2017-04-09T02:41:48.406Z,1021.59
2017-04-09T02:42:29.292Z,1021.59
2017-04-09T02:43:10.175Z,1021.61
2017-04-09T02:43:51.060Z,1021.59
2017-04-09T02:44:31.945Z,1021.6
2017-04-09T02:45:12.837Z,1021.62
2017-04-09T02:45:53.713Z,1021.59
2017-04-09T02:46:34.589Z,1021.6
2017-04-09T02:47:15.476Z,1021.56
2017-04-09T02:47:56.367Z,1021.6
2017-04-09T02:48:37.241Z,1021.58
2017-04-09T02:49:18.122Z,1021.59
2017-04-09T02:49:59.005Z,1021.58
2017-04-09T02:50:39.889Z,1021.61
2017-04-09T02:51:20.773Z,1021.6
2017-04-09T02:52:01.655Z,1021.6
2017-04-09T02:52:42.545Z,1021.61
2017-04-09T02:53:23.433Z,1021.62
2017-04-09T02:54:04.307Z,1021.61
2017-04-09T02:54:45.188Z,1021.6
2017-04-09T02:55:26.076Z,1021.61
2017-04-09T02:56:06.964Z,1021.59
2017-04-09T02:56:47.848Z,1021.58
2017-04-09T02:57:28.731Z,1021.59
2017-04-09T02:58:09.634Z,1021.57
2017-04-09T02:58:50.513Z,1021.61
2017-04-09T02:59:31.394Z,1021.61
2017-04-09T03:00:12.283Z,1021.6
2017-04-09T03:00:53.167Z,1021.59
2017-04-09T03:01:34.062Z,1021.59
2017-04-09T03:02:14.936Z,1021.6
2017-04-09T03:02:55.819Z,1021.58
2017-04-09T03:03:36.706Z,1021.56
2017-04-09T03:04:17.580Z,1021.58
2017-04-09T03:04:58.487Z,1021.59
2017-04-09T03:05:39.371Z,1021.53
2017-04-09T03:06:20.259Z,1021.55
2017-04-09T03:07:01.130Z,1021.54
2017-04-09T03:07:42.027Z,1021.57
2017-04-09T03:08:22.915Z,1021.56
2017-04-09T03:09:03.792Z,1021.6
2017-04-09T03:09:44.678Z,1021.55
2017-04-09T03:10:25.593Z,1021.57
2017-04-09T03:11:06.479Z,1021.55
2017-04-09T03:11:47.366Z,1021.57
2017-04-09T03:12:28.256Z,1021.54
2017-04-09T03:13:09.135Z,1021.58
2017-04-09T03:13:50.022Z,1021.55
2017-04-09T03:14:30.899Z,1021.53
2017-04-09T03:15:11.787Z,1021.55
2017-04-09T03:15:52.693Z,1021.53
2017-04-09T03:16:33.588Z,1021.53
2017-04-09T03:17:14.469Z,1021.56
2017-04-09T03:17:55.386Z,1021.54
2017-04-09T03:18:36.234Z,1021.54
2017-04-09T03:19:17.123Z,1021.53
2017-04-09T03:19:58.007Z,1021.57
2017-04-09T03:20:38.889Z,1021.55
2017-04-09T03:21:19.772Z,1021.55
2017-04-09T03:22:00.690Z,1021.51
2017-04-09T03:22:41.542Z,1021.56
2017-04-09T03:23:22.427Z,1021.56
2017-04-09T03:24:03.308Z,1021.59
2017-04-09T03:24:44.191Z,1021.61
2017-04-09T03:25:25.076Z,1021.57
2017-04-09T03:26:05.961Z,1021.54
2017-04-09T03:26:46.849Z,1021.57
2017-04-09T03:27:27.736Z,1021.54
2017-04-09T03:28:08.620Z,1021.55
2017-04-09T03:28:49.509Z,1021.53
2017-04-09T03:29:30.400Z,1021.55
2017-04-09T03:30:11.285Z,1021.56
2017-04-09T03:30:52.164Z,1021.53
2017-04-09T03:31:33.047Z,1021.52
2017-04-09T03:32:13.932Z,1021.55
2017-04-09T03:32:54.817Z,1021.54
2017-04-09T03:33:35.694Z,1021.54
2017-04-09T03:34:16.574Z,1021.51
2017-04-09T03:34:57.457Z,1021.53
2017-04-09T03:35:38.345Z,1021.5
2017-04-09T03:36:19.225Z,1021.51
2017-04-09T03:37:00.113Z,1021.51
2017-04-09T03:37:41.001Z,1021.48
2017-04-09T03:38:21.886Z,1021.48
2017-04-09T03:39:02.767Z,1021.5
2017-04-09T03:39:43.651Z,1021.48
2017-04-09T03:40:24.537Z,1021.51
2017-04-09T03:41:05.419Z,1021.51
2017-04-09T03:41:46.305Z,1021.5
2017-04-09T03:42:27.185Z,1021.51
2017-04-09T03:43:08.071Z,1021.55
2017-04-09T03:43:48.953Z,1021.52
2017-04-09T03:44:29.834Z,1021.52
2017-04-09T03:45:10.717Z,1021.48
2017-04-09T03:45:51.599Z,1021.53
2017-04-09T03:46:32.487Z,1021.54
2017-04-09T03:47:13.365Z,1021.51
2017-04-09T03:47:54.251Z,1021.5
2017-04-09T03:48:35.131Z,1021.5
2017-04-09T03:49:16.017Z,1021.52
2017-04-09T03:49:56.896Z,1021.51
2017-04-09T03:50:37.776Z,1021.5
2017-04-09T03:51:18.658Z,1021.54
2017-04-09T03:51:59.541Z,1021.52
2017-04-09T03:52:40.422Z,1021.54
2017-04-09T03:53:21.304Z,1021.54
2017-04-09T03:54:02.190Z,1021.51
2017-04-09T03:54:43.073Z,1021.52
2017-04-09T03:55:23.958Z,1021.53
2017-04-09T03:56:04.868Z,1021.53
2017-04-09T03:56:45.750Z,1021.53
2017-04-09T03:57:26.633Z,1021.55
2017-04-09T03:58:07.523Z,1021.5
2017-04-09T03:58:48.402Z,1021.55
2017-04-09T03:59:29.286Z,1021.52
2017-04-09T04:00:10.163Z,1021.56
2017-04-09T04:00:51.050Z,1021.56
2017-04-09T04:01:31.934Z,1021.52
2017-04-09T04:02:12.815Z,1021.54
2017-04-09T04:02:53.700Z,1021.55
2017-04-09T04:03:34.585Z,1021.56
2017-04-09T04:04:15.469Z,1021.56
2017-04-09T04:04:56.357Z,1021.58
2017-04-09T04:05:37.239Z,1021.53
2017-04-09T04:06:18.119Z,1021.55
2017-04-09T04:06:59.012Z,1021.59
2017-04-09T04:07:39.894Z,1021.55
2017-04-09T04:08:20.777Z,1021.58
2017-04-09T04:09:01.657Z,1021.52
2017-04-09T04:09:42.540Z,1021.54
2017-04-09T04:10:23.430Z,1021.55
2017-04-09T04:11:04.311Z,1021.55
2017-04-09T04:11:45.192Z,1021.51
2017-04-09T04:12:26.074Z,1021.55
2017-04-09T04:13:06.947Z,1021.52
2017-04-09T04:13:47.831Z,1021.55
2017-04-09T04:14:28.717Z,1021.52
2017-04-09T04:15:09.604Z,1021.55
2017-04-09T04:15:50.494Z,1021.55
2017-04-09T04:16:31.368Z,1021.55
2017-04-09T04:17:12.245Z,1021.59
2017-04-09T04:17:53.133Z,1021.62
2017-04-09T04:18:34.022Z,1021.62
2017-04-09T04:19:14.897Z,1021.63
2017-04-09T04:19:55.781Z,1021.64
2017-04-09T04:20:36.661Z,1021.65
2017-04-09T04:21:17.548Z,1021.62
2017-04-09T04:21:58.432Z,1021.62
2017-04-09T04:22:39.317Z,1021.59
2017-04-09T04:23:20.206Z,1021.62
2017-04-09T04:24:04.411Z,1021.6
2017-04-09T04:24:45.286Z,1021.64
2017-04-09T04:25:26.171Z,1021.65
2017-04-09T04:26:07.056Z,1021.67
2017-04-09T04:26:47.934Z,1021.66
2017-04-09T04:27:28.821Z,1021.63
2017-04-09T04:28:09.700Z,1021.65
2017-04-09T04:28:50.579Z,1021.64
2017-04-09T04:29:31.465Z,1021.61
2017-04-09T04:30:12.347Z,1021.61
2017-04-09T04:30:53.227Z,1021.62
2017-04-09T04:31:34.114Z,1021.61
2017-04-09T04:32:14.995Z,1021.6
2017-04-09T04:32:55.878Z,1021.63
2017-04-09T04:33:36.759Z,1021.64
2017-04-09T04:34:17.646Z,1021.61
2017-04-09T04:34:58.520Z,1021.62
2017-04-09T04:35:39.404Z,1021.63
2017-04-09T04:36:20.303Z,1021.62
2017-04-09T04:37:01.187Z,1021.63
2017-04-09T04:37:42.070Z,1021.64
2017-04-09T04:38:22.963Z,1021.63
2017-04-09T04:39:03.845Z,1021.64
2017-04-09T04:39:44.728Z,1021.62
2017-04-09T04:40:25.610Z,1021.65
2017-04-09T04:41:06.497Z,1021.67
2017-04-09T04:41:47.378Z,1021.65
2017-04-09T04:42:28.256Z,1021.72
2017-04-09T04:43:09.148Z,1021.73
2017-04-09T04:43:50.035Z,1021.73
2017-04-09T04:44:30.921Z,1021.72
2017-04-09T04:45:11.806Z,1021.72
2017-04-09T04:45:52.695Z,1021.74
2017-04-09T04:46:33.582Z,1021.74
2017-04-09T04:47:14.466Z,1021.77
2017-04-09T04:47:55.350Z,1021.74
2017-04-09T04:48:36.233Z,1021.75
2017-04-09T04:49:17.112Z,1021.7
2017-04-09T04:49:57.997Z,1021.7
2017-04-09T04:50:38.932Z,1021.69
2017-04-09T04:51:19.820Z,1021.7
2017-04-09T04:52:00.705Z,1021.69
2017-04-09T04:52:41.604Z,1021.71
2017-04-09T04:53:22.484Z,1021.72
2017-04-09T04:54:03.367Z,1021.69
2017-04-09T04:54:44.255Z,1021.72
2017-04-09T04:55:25.136Z,1021.71
2017-04-09T04:56:06.015Z,1021.72
2017-04-09T04:56:46.899Z,1021.71
2017-04-09T04:57:27.788Z,1021.73
2017-04-09T04:58:08.805Z,1021.76
2017-04-09T04:58:49.708Z,1021.75
2017-04-09T04:59:30.580Z,1021.75
2017-04-09T05:00:11.466Z,1021.75
2017-04-09T05:00:52.340Z,1021.77
2017-04-09T05:01:33.224Z,1021.79
2017-04-09T05:02:14.112Z,1021.81
2017-04-09T05:02:54.993Z,1021.81
2017-04-09T05:03:35.883Z,1021.81
2017-04-09T05:04:16.760Z,1021.82
2017-04-09T05:04:57.648Z,1021.86
2017-04-09T05:05:38.535Z,1021.85
2017-04-09T05:06:19.406Z,1021.88
2017-04-09T05:07:00.293Z,1021.88
2017-04-09T05:07:41.180Z,1021.85
2017-04-09T05:08:22.067Z,1021.89
2017-04-09T05:09:02.943Z,1021.88
2017-04-09T05:09:43.824Z,1021.89
2017-04-09T05:10:24.703Z,1021.85
2017-04-09T05:11:05.588Z,1021.88
2017-04-09T05:11:46.465Z,1021.87
2017-04-09T05:12:27.351Z,1021.88
2017-04-09T05:13:08.244Z,1021.86
2017-04-09T05:13:49.134Z,1021.87
2017-04-09T05:14:30.018Z,1021.84
2017-04-09T05:15:10.908Z,1021.89
2017-04-09T05:15:51.792Z,1021.87
2017-04-09T05:16:32.676Z,1021.88
2017-04-09T05:17:13.561Z,1021.86
2017-04-09T05:17:54.450Z,1021.86
2017-04-09T05:18:35.333Z,1021.88
2017-04-09T05:19:16.209Z,1021.87
2017-04-09T05:19:57.087Z,1021.87
2017-04-09T05:20:37.975Z,1021.84
2017-04-09T05:21:18.859Z,1021.86
2017-04-09T05:21:59.746Z,1021.89
2017-04-09T05:22:40.635Z,1021.89
2017-04-09T05:23:21.518Z,1021.94
2017-04-09T05:24:02.410Z,1021.91
2017-04-09T05:24:43.292Z,1021.93
2017-04-09T05:25:24.166Z,1021.96
2017-04-09T05:26:05.057Z,1021.94
2017-04-09T05:26:45.938Z,1021.92
2017-04-09T05:27:26.824Z,1021.94
2017-04-09T05:28:07.712Z,1021.95
2017-04-09T05:28:48.611Z,1021.95
2017-04-09T05:29:29.498Z,1021.95
2017-04-09T05:30:10.401Z,1021.94
2017-04-09T05:30:51.281Z,1021.93
2017-04-09T05:31:32.167Z,1021.87
2017-04-09T05:32:13.052Z,1021.93
2017-04-09T05:32:53.935Z,1021.9
2017-04-09T05:33:34.815Z,1021.91
2017-04-09T05:34:15.699Z,1021.91
2017-04-09T05:34:56.584Z,1021.9
2017-04-09T05:35:37.471Z,1021.92
2017-04-09T05:36:18.353Z,1021.93
2017-04-09T05:36:59.239Z,1021.95
2017-04-09T05:37:40.119Z,1021.9
2017-04-09T05:38:21.003Z,1021.9
2017-04-09T05:39:01.886Z,1021.91
2017-04-09T05:39:42.768Z,1021.92
2017-04-09T05:40:23.652Z,1021.92
2017-04-09T05:41:04.542Z,1021.94
2017-04-09T05:41:45.430Z,1021.92
2017-04-09T05:42:26.309Z,1021.91
2017-04-09T05:43:07.193Z,1021.92
2017-04-09T05:43:48.074Z,1021.93
2017-04-09T05:44:28.963Z,1021.9
2017-04-09T05:45:09.847Z,1021.92
2017-04-09T05:45:50.730Z,1021.91
2017-04-09T05:46:31.608Z,1021.91
2017-04-09T05:47:12.495Z,1021.9
2017-04-09T05:47:53.370Z,1021.91
2017-04-09T05:48:34.252Z,1021.87
2017-04-09T05:49:15.136Z,1021.89
2017-04-09T05:49:56.017Z,1021.88
2017-04-09T05:50:36.899Z,1021.87
2017-04-09T05:51:17.784Z,1021.89
2017-04-09T05:51:58.670Z,1021.92
2017-04-09T05:52:39.555Z,1021.94
2017-04-09T05:53:20.435Z,1021.89
2017-04-09T05:54:01.318Z,1021.91
2017-04-09T05:54:42.201Z,1021.95
2017-04-09T05:55:23.082Z,1021.95
2017-04-09T05:56:03.965Z,1021.95
2017-04-09T05:56:44.861Z,1021.94
2017-04-09T05:57:25.739Z,1021.94
2017-04-09T05:58:06.625Z,1021.96
2017-04-09T05:58:47.508Z,1021.96
2017-04-09T05:59:28.385Z,1021.93
2017-04-09T06:00:09.270Z,1021.97
2017-04-09T06:00:50.151Z,1021.99
2017-04-09T06:01:31.050Z,1021.97
2017-04-09T06:02:11.909Z,1021.98
2017-04-09T06:02:52.793Z,1021.98
2017-04-09T06:03:33.674Z,1021.99
2017-04-09T06:04:14.558Z,1022
2017-04-09T06:04:55.441Z,1022.06
2017-04-09T06:05:36.330Z,1022.04
2017-04-09T06:06:17.211Z,1022.02
2017-04-09T06:06:58.097Z,1022.03
2017-04-09T06:07:38.979Z,1022.07
2017-04-09T06:08:19.870Z,1022.11
2017-04-09T06:09:00.754Z,1022.1
2017-04-09T06:09:41.635Z,1022.13
2017-04-09T06:10:22.518Z,1022.08
2017-04-09T06:11:03.403Z,1022.09
2017-04-09T06:11:44.298Z,1022.08
2017-04-09T06:12:25.182Z,1022.13
2017-04-09T06:13:06.067Z,1022.11
2017-04-09T06:13:46.953Z,1022.15
2017-04-09T06:14:27.851Z,1022.15
2017-04-09T06:15:08.731Z,1022.16
2017-04-09T06:15:49.620Z,1022.17
2017-04-09T06:16:30.509Z,1022.17
2017-04-09T06:17:11.390Z,1022.19
2017-04-09T06:17:52.279Z,1022.17
2017-04-09T06:18:33.164Z,1022.17
2017-04-09T06:19:14.047Z,1022.17
2017-04-09T06:19:54.959Z,1022.2
2017-04-09T06:20:35.856Z,1022.18
2017-04-09T06:21:16.735Z,1022.19
2017-04-09T06:21:57.615Z,1022.18
2017-04-09T06:22:38.502Z,1022.21
2017-04-09T06:23:19.388Z,1022.21
2017-04-09T06:24:00.269Z,1022.16
2017-04-09T06:24:41.151Z,1022.2
2017-04-09T06:25:22.054Z,1022.19
2017-04-09T06:26:02.934Z,1022.19
2017-04-09T06:26:43.822Z,1022.16
2017-04-09T06:27:24.710Z,1022.19
2017-04-09T06:28:05.601Z,1022.17
2017-04-09T06:28:46.487Z,1022.17
2017-04-09T06:29:27.373Z,1022.18
2017-04-09T06:30:08.258Z,1022.19
2017-04-09T06:30:49.141Z,1022.15
2017-04-09T06:31:30.030Z,1022.18
2017-04-09T06:32:10.922Z,1022.15
2017-04-09T06:32:51.806Z,1022.15
2017-04-09T06:33:32.684Z,1022.2
2017-04-09T06:34:13.562Z,1022.14
2017-04-09T06:34:54.452Z,1022.19
2017-04-09T06:35:35.334Z,1022.17
2017-04-09T06:36:16.211Z,1022.18
2017-04-09T06:36:57.095Z,1022.19
2017-04-09T06:37:37.981Z,1022.21
2017-04-09T06:38:18.884Z,1022.19
2017-04-09T06:38:59.775Z,1022.18
2017-04-09T06:39:40.657Z,1022.22
2017-04-09T06:40:21.546Z,1022.21
2017-04-09T06:41:02.422Z,1022.24
2017-04-09T06:41:43.305Z,1022.25
2017-04-09T06:42:24.251Z,1022.26
2017-04-09T06:43:05.141Z,1022.26
2017-04-09T06:43:46.024Z,1022.25
2017-04-09T06:44:26.902Z,1022.25
2017-04-09T06:45:07.773Z,1022.24
2017-04-09T06:45:48.672Z,1022.24
2017-04-09T06:46:29.558Z,1022.24
2017-04-09T06:47:10.442Z,1022.25
2017-04-09T06:47:51.331Z,1022.25
2017-04-09T06:48:32.219Z,1022.26
2017-04-09T06:49:13.108Z,1022.27
2017-04-09T06:49:53.982Z,1022.27
2017-04-09T06:50:34.865Z,1022.24
2017-04-09T06:51:15.748Z,1022.21
2017-04-09T06:51:56.632Z,1022.26
2017-04-09T06:52:37.519Z,1022.28
2017-04-09T06:53:18.402Z,1022.25
2017-04-09T06:53:59.291Z,1022.27
2017-04-09T06:54:40.183Z,1022.27
2017-04-09T06:55:21.066Z,1022.25
2017-04-09T06:56:01.953Z,1022.28
2017-04-09T06:56:42.840Z,1022.29
2017-04-09T06:57:23.722Z,1022.25
2017-04-09T06:58:04.605Z,1022.28
2017-04-09T06:58:45.492Z,1022.29
2017-04-09T06:59:26.374Z,1022.32
2017-04-09T07:00:07.250Z,1022.29
2017-04-09T07:00:48.130Z,1022.28
2017-04-09T07:01:29.015Z,1022.32
2017-04-09T07:02:09.901Z,1022.29
2017-04-09T07:02:50.787Z,1022.34
2017-04-09T07:03:31.675Z,1022.29
2017-04-09T07:04:12.558Z,1022.33
2017-04-09T07:04:53.444Z,1022.34
2017-04-09T07:05:34.331Z,1022.32
2017-04-09T07:06:15.208Z,1022.31
2017-04-09T07:06:56.092Z,1022.34
2017-04-09T07:07:36.984Z,1022.36
2017-04-09T07:08:17.867Z,1022.35
2017-04-09T07:08:58.757Z,1022.41
2017-04-09T07:09:39.643Z,1022.44
2017-04-09T07:10:20.529Z,1022.45
2017-04-09T07:11:01.418Z,1022.4
2017-04-09T07:11:42.329Z,1022.41
2017-04-09T07:12:23.215Z,1022.44
2017-04-09T07:13:04.098Z,1022.46
2017-04-09T07:13:44.991Z,1022.4
2017-04-09T07:14:25.876Z,1022.41
2017-04-09T07:15:06.762Z,1022.42
2017-04-09T07:15:47.650Z,1022.43
2017-04-09T07:16:28.535Z,1022.45
2017-04-09T07:17:09.418Z,1022.44
2017-04-09T07:17:50.304Z,1022.45
2017-04-09T07:18:31.194Z,1022.43
2017-04-09T07:19:12.082Z,1022.45
2017-04-09T07:19:52.968Z,1022.49
2017-04-09T07:20:33.863Z,1022.47
2017-04-09T07:21:14.754Z,1022.52
2017-04-09T07:21:55.636Z,1022.49
2017-04-09T07:22:36.519Z,1022.49
2017-04-09T07:23:17.410Z,1022.5
2017-04-09T07:23:58.290Z,1022.5
2017-04-09T07:24:39.180Z,1022.49
2017-04-09T07:25:20.068Z,1022.52
2017-04-09T07:26:00.956Z,1022.51
2017-04-09T07:26:41.846Z,1022.51
2017-04-09T07:27:22.737Z,1022.52
2017-04-09T07:28:03.624Z,1022.47
2017-04-09T07:28:44.512Z,1022.49
2017-04-09T07:29:25.400Z,1022.51
2017-04-09T07:30:06.289Z,1022.5
2017-04-09T07:30:47.172Z,1022.48
2017-04-09T07:31:28.058Z,1022.49
2017-04-09T07:32:08.944Z,1022.5
2017-04-09T07:32:49.833Z,1022.49
2017-04-09T07:33:30.762Z,1022.5
2017-04-09T07:34:11.654Z,1022.47
2017-04-09T07:34:52.540Z,1022.5
2017-04-09T07:35:33.480Z,1022.51
2017-04-09T07:36:14.334Z,1022.52
2017-04-09T07:36:55.254Z,1022.5
2017-04-09T07:37:36.146Z,1022.5
2017-04-09T07:38:17.027Z,1022.5
2017-04-09T07:38:57.918Z,1022.5
2017-04-09T07:39:38.834Z,1022.53
2017-04-09T07:40:19.734Z,1022.51
2017-04-09T07:41:00.622Z,1022.48
2017-04-09T07:41:41.548Z,1022.51
2017-04-09T07:42:22.453Z,1022.53
2017-04-09T07:43:03.341Z,1022.55
2017-04-09T07:43:44.250Z,1022.5
2017-04-09T07:44:25.154Z,1022.54
2017-04-09T07:45:06.034Z,1022.55
2017-04-09T07:45:46.919Z,1022.57
2017-04-09T07:46:27.842Z,1022.58
2017-04-09T07:47:08.734Z,1022.59
2017-04-09T07:47:49.626Z,1022.57
2017-04-09T07:48:30.504Z,1022.55
2017-04-09T07:49:11.397Z,1022.57
2017-04-09T07:49:52.292Z,1022.55
2017-04-09T07:50:33.180Z,1022.62
2017-04-09T07:51:14.088Z,1022.63
2017-04-09T07:51:54.973Z,1022.55
2017-04-09T07:52:35.871Z,1022.51
2017-04-09T07:53:16.756Z,1022.57
2017-04-09T07:53:57.639Z,1022.55
2017-04-09T07:54:38.536Z,1022.52
2017-04-09T07:55:19.429Z,1022.54
2017-04-09T07:56:00.344Z,1022.53
2017-04-09T07:56:41.226Z,1022.52
2017-04-09T07:57:22.114Z,1022.5
2017-04-09T07:58:03.007Z,1022.56
2017-04-09T07:58:43.921Z,1022.63
2017-04-09T07:59:24.807Z,1022.65
2017-04-09T08:00:05.698Z,1022.66
2017-04-09T08:00:46.599Z,1022.69
2017-04-09T08:01:27.499Z,1022.73
2017-04-09T08:02:08.402Z,1022.72
2017-04-09T08:02:49.302Z,1022.7
2017-04-09T08:03:30.192Z,1022.78
2017-04-09T08:04:11.092Z,1022.78
2017-04-09T08:04:51.988Z,1022.72
2017-04-09T08:05:32.884Z,1022.77
2017-04-09T08:06:13.795Z,1022.72
2017-04-09T08:06:54.686Z,1022.79
2017-04-09T08:07:35.593Z,1022.72
2017-04-09T08:08:16.498Z,1022.75
2017-04-09T08:08:57.391Z,1022.7
2017-04-09T08:09:38.296Z,1022.7
2017-04-09T08:10:19.182Z,1022.59
2017-04-09T08:11:00.095Z,1022.57
2017-04-09T08:11:40.999Z,1022.55
2017-04-09T08:12:21.902Z,1022.54
2017-04-09T08:13:02.799Z,1022.55
2017-04-09T08:13:43.688Z,1022.56
2017-04-09T08:14:25.354Z,1022.55
2017-04-09T08:15:06.247Z,1022.57
2017-04-09T08:15:47.148Z,1022.58
2017-04-09T08:16:28.044Z,1022.54
2017-04-09T08:17:08.942Z,1022.57